Historyczne dane pomiarowe

Dodano dane terminowe – wersja testowa.

Dane z okresu 1951-2019

Wersja bazy: 1.34 [2019-03-16, lista zmian], aktualizacja planowana na 2019-04-15

Dane meteo z obszaru Polski uzyskane na podstawie danych udostępnionych przez Instytut Meteorologii i Gospodarki Wodnej – Państwowy Instytut Badawczy.

 

Wybierz Datę:    

       

TemperaturaWilgotnośćZachmurzenieWiatrCiśnienieWidzialnośćZjawiska
 Data    tng td wb rh cc ccl cl cm ch dir g1 g2 mslp ppp      
1999-08-03 00:00:00 19.0--- 6.5 12.344wxwxwx2wx--1017.4 994.8 0.0---wx
1999-08-03 01:00:00 19.6--- 5.9 12.341wxwxwx1wx--1017.5 994.9----wx
1999-08-03 02:00:00 17.7--- 6.7 11.848wxwxwx2wx--1017.5 994.8----wx
1999-08-03 03:00:00 18.4--- 5.7 11.743wxwx2wx--1017.2 994.5----wx
1999-08-03 04:00:00 17.8--- 7.7 12.352wxwx2wx--1017.1 994.4----wx
1999-08-03 05:00:00 17.7--- 7.8 12.352wxwx2wx--1017.2 994.5----wx
1999-08-03 06:00:00 18.6--- 9.0 13.253wxwx2wx--1017.3 994.7 0.0---wx
1999-08-03 07:00:00 20.6--- 9.2 14.148wxwx1wx--1017.2 994.7----wx
1999-08-03 08:00:00 23.0--- 7.6 14.437wxwx2wx--1017.1 994.8----wx
1999-08-03 09:00:00 24.6--- 6.6 14.631wxwxwx2wx--1016.8 994.6----wx
1999-08-03 10:00:00 25.5--- 7.2 15.231wxwxwx2wx--1016.6 994.5----wx
1999-08-03 11:00:00 25.4--- 6.0 14.729wxwxwx2wx--1016.4 994.3----wx
1999-08-03 12:00:00 25.9--- 4.6 14.425wxwxwx3wx--1015.9 993.8 0.0---wx
1999-08-03 13:00:00 26.2--- 6.2 15.128wxwxwx3wx--1015.4 993.4----wx
1999-08-03 14:00:00 26.8--- 6.7 15.528wxwxwx3wx--1015.2 993.2----wx
1999-08-03 15:00:00 26.8--- 6.4 15.427wxwxwx1wx--1015.3 993.3----wx
1999-08-03 16:00:00 25.6--- 6.0 14.829wxwxwx2wx--1015.2 993.1----wx
1999-08-03 17:00:00 25.8--- 6.1 14.928wxwxwx2wx--1015.3 993.2----wx
1999-08-03 18:00:00 24.7--- 6.5 14.631wxwxwx1wx--1015.4 993.3 0.0---wx
1999-08-03 19:00:00 22.7--- 6.4 13.835wxwx2wx--1015.7 993.4----wx
1999-08-03 20:00:00 22.3--- 6.3 13.636wxwx2wx--1015.9 993.6----wx
1999-08-03 21:00:00 21.9--- 6.8 13.638wxwx2wx--1015.9 993.5----wx
1999-08-03 22:00:00 21.6--- 6.8 13.538wxwx2wx--1016.0 993.6----wx
1999-08-03 23:00:00 20.1--- 6.9 12.942wxwxwx2wx--1016.0 993.5----wx

 

Źródłem pochodzenia danych jest Instytut Meteorologii i Gospodarki Wodnej – Państwowy Instytut Badawczy. Dane Instytutu Meteorologii i Gospodarki Wodnej – Państwowego Instytutu Badawczego zostały przetworzone.

Dane źródłowe można odnaleźć na stronie https://dane.imgw.pl